This is the latest recevied weather packets stored in our database for station/object N4MRV-1. If no packets are shown the sender has not sent any weather packets the latest 10 day(s).
| Time | Temp. | Humidity | Pressure | Rain* | Wind** | Luminosity | Snow |
|---|---|---|---|---|---|---|---|
| 1777997717 | 27.22° C | 44% | 1014.3 hPa | 0 mm | - | 925 W/m² | - |
| 1777995937 | 25.56° C | 46% | 1014.8 hPa | 0 mm | - | 886 W/m² | - |
| 1777992317 | 21.67° C | 58% | 1014.8 hPa | 0 mm | - | 739 W/m² | - |
| 1777987817 | 18.33° C | 65% | 1014.8 hPa | 0 mm | - | 70 W/m² | - |
| 1777985137 | 16.67° C | 70% | 1015 hPa | 0 mm | - | 57 W/m² | - |
| 1777977936 | 15° C | 73% | 1014 hPa | 0 mm | - | 14 W/m² | - |
| 1777966236 | 16.11° C | 65% | 1013.4 hPa | 0 mm | - | 0 W/m² | - |
| 1777961716 | 16.11° C | 63% | 1013.1 hPa | 0 mm | - | 0 W/m² | - |
| 1777950016 | 16.67° C | 60% | 1012.8 hPa | 0 mm | - | 0 W/m² | - |
| 1777941916 | 20° C | 47% | 1011.7 hPa | 0 mm | - | 0 W/m² | - |
| 1777941016 | 20.56° C | 48% | 1011.7 hPa | 0 mm | - | 0 W/m² | - |
| 1777931116 | 24.44° C | 36% | 1011.5 hPa | 0 mm | - | 66 W/m² | - |
| 1777921217 | 23.89° C | 35% | 1013.1 hPa | 0 mm | - | 297 W/m² | - |
| 1777920318 | 23.33° C | 35% | 1013.3 hPa | 0 mm | - | 277 W/m² | - |
| 1777914017 | 22.78° C | 34% | 1014.3 hPa | 0 mm | - | 123 W/m² | - |
| 1777906817 | 20° C | 45% | 1015.5 hPa | 0 mm | - | 813 W/m² | - |
| 1777904116 | 16.67° C | 54% | 1015.6 hPa | 0 mm | - | 75 W/m² | - |
| 1777901417 | 13.89° C | 61% | 1015.9 hPa | 0 mm | - | 75 W/m² | - |
| 1777897816 | 10.56° C | 70% | 1016.4 hPa | 0 mm | - | 59 W/m² | - |
| 1777889736 | 8.89° C | 71% | 1016.3 hPa | 0 mm | - | 0 W/m² | - |
| 1777887916 | 8.89° C | 67% | 1016.5 hPa | 0 mm | - | 0 W/m² | - |
| 1777878016 | 7.78° C | 74% | 1016.6 hPa | 0 mm | - | 0 W/m² | - |
| 1777869916 | 7.22° C | 76% | 1016.6 hPa | 0 mm | - | 0 W/m² | - |
| 1777861816 | 8.33° C | 68% | 1016.4 hPa | 0 mm | - | 0 W/m² | - |
| 1777860016 | 9.44° C | 66% | 1016.1 hPa | 0 mm | - | 0 W/m² | - |
* Rain latest hour (hover to see other rain measurements)
** Current wind speed in m/s (hover to see current wind gust speed)